Time;durP1;ratioP1;P1;durP2;ratioP2;P2;SDS_P1;SDS_P2;PMS_P1;PMS_P2;Temp;Humidity;BMP_temperature;BMP_pressure;BME280_temperature;BME280_humidity;BME280_pressure;Samples;Min_cycle;Max_cycle;Signal;HPM_P1;HPM_P2
2022/08/20 00:01:00;;;;;;;3.08;2.05;;;;;;;;;;5041622;28;20076;-64
2022/08/20 00:03:30;;;;;;;3.85;2.33;;;;;;;;;;5049440;28;20049;-64
2022/08/20 00:06:07;;;;;;;3.75;2.28;;;;;;;;;;5068478;28;20121;-64
2022/08/20 00:08:33;;;;;;;3.13;2.05;;;;;;;;;;5068517;28;20055;-64
2022/08/20 00:11:00;;;;;;;3.63;2.13;;;;;;;;;;5055898;28;20127;-64
2022/08/20 00:13:28;;;;;;;3.58;2.15;;;;;;;;;;5051342;28;20381;-64
2022/08/20 00:15:54;;;;;;;4.18;2.05;;;;;;;;;;5049974;28;20041;-64
2022/08/20 00:18:21;;;;;;;4.50;2.20;;;;;;;;;;5069430;28;20048;-63
2022/08/20 00:20:48;;;;;;;2.17;1.80;;;;;;;;;;5067899;28;20366;-63
2022/08/20 00:23:15;;;;;;;3.90;2.00;;;;;;;;;;5068992;28;20088;-64
2022/08/20 00:25:41;;;;;;;3.83;2.28;;;;;;;;;;5067880;28;20088;-64
2022/08/20 00:28:08;;;;;;;3.78;2.30;;;;;;;;;;5069014;28;20401;-64
2022/08/20 00:30:35;;;;;;;3.50;2.10;;;;;;;;;;5050516;28;20098;-63
2022/08/20 00:33:05;;;;;;;4.07;2.30;;;;;;;;;;5072874;28;20044;-64
2022/08/20 00:35:33;;;;;;;4.68;2.28;;;;;;;;;;5053321;28;20366;-64
2022/08/20 00:37:59;;;;;;;2.85;1.90;;;;;;;;;;5067982;28;20040;-64
2022/08/20 00:40:27;;;;;;;4.13;2.15;;;;;;;;;;5063094;28;20062;-64
2022/08/20 00:42:56;;;;;;;3.05;1.80;;;;;;;;;;5070124;28;20046;-62
2022/08/20 00:45:22;;;;;;;2.83;2.15;;;;;;;;;;5067962;28;20044;-62
2022/08/20 00:47:48;;;;;;;4.22;2.30;;;;;;;;;;5048520;28;20120;-61
2022/08/20 00:50:16;;;;;;;2.65;1.88;;;;;;;;;;5071105;28;20041;-62
2022/08/20 00:52:44;;;;;;;3.35;2.10;;;;;;;;;;5053904;28;20040;-62
2022/08/20 00:55:11;;;;;;;2.42;1.80;;;;;;;;;;5070496;28;20079;-61
2022/08/20 00:57:41;;;;;;;3.38;2.10;;;;;;;;;;5033228;28;20060;-61
2022/08/20 01:00:15;;;;;;;2.78;2.08;;;;;;;;;;5056615;28;20079;-61
2022/08/20 01:02:41;;;;;;;2.90;2.00;;;;;;;;;;5060600;28;20048;-61
2022/08/20 01:05:08;;;;;;;3.00;2.10;;;;;;;;;;5070265;28;20036;-62
2022/08/20 01:07:35;;;;;;;3.45;1.80;;;;;;;;;;5051104;28;20044;-62
2022/08/20 01:10:02;;;;;;;3.92;2.15;;;;;;;;;;5065098;28;20385;-62
2022/08/20 01:12:29;;;;;;;3.40;2.17;;;;;;;;;;5066518;28;20048;-62
2022/08/20 01:14:57;;;;;;;2.35;1.90;;;;;;;;;;5045508;28;20650;-62
2022/08/20 01:17:26;;;;;;;2.63;1.90;;;;;;;;;;5070471;28;20603;-62
2022/08/20 01:20:03;;;;;;;5.82;1.90;;;;;;;;;;5070960;28;20550;-62
2022/08/20 01:25:46;;;;;;;3.28;1.90;;;;;;;;;;5051934;28;20057;-62
2022/08/20 01:28:13;;;;;;;2.60;1.83;;;;;;;;;;5053005;28;20047;-62
2022/08/20 01:30:40;;;;;;;2.70;1.77;;;;;;;;;;5051854;28;20355;-62
2022/08/20 01:33:06;;;;;;;3.30;1.90;;;;;;;;;;5071987;28;20045;-62
2022/08/20 01:35:36;;;;;;;3.80;2.13;;;;;;;;;;5058149;28;20056;-62
2022/08/20 01:38:02;;;;;;;2.97;1.73;;;;;;;;;;5051892;28;20037;-62
2022/08/20 01:40:38;;;;;;;4.07;2.08;;;;;;;;;;5062188;28;20137;-62
2022/08/20 01:43:05;;;;;;;3.15;1.88;;;;;;;;;;5039414;28;20385;-62
2022/08/20 01:45:32;;;;;;;4.57;2.50;;;;;;;;;;5059272;28;20489;-63
2022/08/20 01:47:58;;;;;;;3.70;2.30;;;;;;;;;;5068006;28;20049;-62
2022/08/20 01:50:26;;;;;;;3.22;2.03;;;;;;;;;;5053083;28;20039;-62
2022/08/20 01:53:03;;;;;;;2.70;1.60;;;;;;;;;;5071210;28;20041;-61
2022/08/20 01:55:29;;;;;;;;;;;;;;;;;;5070840;28;20103;-62
2022/08/20 01:57:55;;;;;;;2.20;1.70;;;;;;;;;;5070981;28;20403;-62
2022/08/20 02:00:22;;;;;;;3.20;1.92;;;;;;;;;;5067804;28;20044;-62
2022/08/20 02:02:49;;;;;;;2.92;2.00;;;;;;;;;;5050823;28;20048;-62
2022/08/20 02:05:15;;;;;;;2.97;1.88;;;;;;;;;;5050300;28;20045;-62
2022/08/20 02:07:41;;;;;;;3.63;2.05;;;;;;;;;;5032736;28;20179;-62
2022/08/20 02:10:08;;;;;;;2.88;1.90;;;;;;;;;;5053568;28;20041;-61
2022/08/20 02:12:34;;;;;;;3.28;1.88;;;;;;;;;;5051128;28;20346;-62
2022/08/20 02:15:00;;;;;;;2.75;1.77;;;;;;;;;;5050755;28;20049;-62
2022/08/20 02:17:26;;;;;;;1.98;1.52;;;;;;;;;;5049984;28;20099;-62
2022/08/20 02:19:55;;;;;;;3.55;2.20;;;;;;;;;;5050724;28;20041;-61
2022/08/20 02:22:23;;;;;;;3.58;2.17;;;;;;;;;;5050175;28;20045;-62
2022/08/20 02:24:50;;;;;;;2.00;1.65;;;;;;;;;;5032455;28;20045;-62
2022/08/20 02:27:17;;;;;;;2.72;1.70;;;;;;;;;;5068403;28;20052;-62
2022/08/20 02:29:43;;;;;;;3.65;2.08;;;;;;;;;;5070815;28;20056;-62
2022/08/20 02:32:10;;;;;;;3.35;2.00;;;;;;;;;;5062641;28;20043;-62
2022/08/20 02:34:37;;;;;;;2.25;1.55;;;;;;;;;;5050989;28;20041;-62
2022/08/20 02:37:04;;;;;;;3.15;1.80;;;;;;;;;;5055726;28;20044;-62
2022/08/20 02:39:30;;;;;;;2.70;1.80;;;;;;;;;;5064347;28;20053;-62
2022/08/20 02:41:56;;;;;;;2.85;1.90;;;;;;;;;;5050063;28;20055;-62
2022/08/20 02:44:22;;;;;;;2.28;1.60;;;;;;;;;;5050801;28;20080;-62
2022/08/20 02:46:48;;;;;;;2.53;1.65;;;;;;;;;;5048946;28;20037;-62
2022/08/20 02:49:16;;;;;;;3.22;1.90;;;;;;;;;;5050776;28;20049;-62
2022/08/20 02:51:42;;;;;;;4.15;2.17;;;;;;;;;;5049648;28;20072;-62
2022/08/20 02:54:08;;;;;;;3.08;2.15;;;;;;;;;;5067922;28;20036;-62
2022/08/20 02:56:34;;;;;;;2.15;1.63;;;;;;;;;;5066372;28;20041;-62
2022/08/20 02:59:01;;;;;;;2.00;1.52;;;;;;;;;;5050095;28;20483;-62
2022/08/20 03:01:27;;;;;;;3.03;1.75;;;;;;;;;;5048393;28;20045;-62
2022/08/20 03:03:55;;;;;;;3.72;2.28;;;;;;;;;;5050059;28;20083;-62
2022/08/20 03:06:22;;;;;;;2.35;1.63;;;;;;;;;;5050283;28;20052;-62
2022/08/20 03:08:48;;;;;;;2.45;1.80;;;;;;;;;;5070297;28;20119;-62
2022/08/20 03:11:15;;;;;;;2.35;1.55;;;;;;;;;;5069838;28;20110;-62
2022/08/20 03:13:41;;;;;;;3.55;1.75;;;;;;;;;;5070453;28;20047;-62
2022/08/20 03:16:07;;;;;;;4.40;1.80;;;;;;;;;;5068346;28;20048;-62
2022/08/20 03:18:41;;;;;;;2.63;1.80;;;;;;;;;;5070320;28;20131;-62
2022/08/20 03:21:08;;;;;;;2.58;1.88;;;;;;;;;;5066995;28;20552;-62
2022/08/20 03:23:34;;;;;;;3.53;2.00;;;;;;;;;;5070106;28;20076;-62
2022/08/20 03:26:02;;;;;;;2.25;1.50;;;;;;;;;;5069460;28;20048;-62
2022/08/20 03:28:28;;;;;;;3.88;1.92;;;;;;;;;;5070153;28;20220;-62
2022/08/20 03:30:55;;;;;;;3.25;2.08;;;;;;;;;;5068429;28;20041;-62
2022/08/20 03:33:22;;;;;;;2.83;2.00;;;;;;;;;;5068470;28;20040;-62
2022/08/20 03:35:49;;;;;;;2.60;1.58;;;;;;;;;;5049140;28;20045;-62
2022/08/20 03:38:16;;;;;;;1.80;1.35;;;;;;;;;;5049672;28;20389;-62
2022/08/20 03:40:44;;;;;;;2.30;1.55;;;;;;;;;;5050438;28;20107;-62
2022/08/20 03:43:10;;;;;;;3.17;1.80;;;;;;;;;;5049600;28;20114;-62
2022/08/20 03:45:38;;;;;;;2.72;2.03;;;;;;;;;;5048753;28;20049;-62
2022/08/20 03:48:06;;;;;;;2.40;1.70;;;;;;;;;;5049531;28;20133;-62
2022/08/20 03:50:32;;;;;;;2.38;1.77;;;;;;;;;;5048907;28;20049;-62
2022/08/20 03:52:58;;;;;;;3.97;1.95;;;;;;;;;;5049395;28;20080;-62
2022/08/20 03:55:25;;;;;;;2.17;1.65;;;;;;;;;;5049646;28;20087;-62
2022/08/20 03:57:52;;;;;;;3.10;1.70;;;;;;;;;;5056997;28;20048;-62
2022/08/20 04:00:20;;;;;;;3.25;1.90;;;;;;;;;;5068390;28;20090;-62
2022/08/20 04:02:46;;;;;;;2.67;1.50;;;;;;;;;;5069790;28;20095;-62
2022/08/20 04:05:13;;;;;;;2.33;1.60;;;;;;;;;;5069363;28;20055;-62
2022/08/20 04:07:39;;;;;;;2.33;1.60;;;;;;;;;;5072824;28;20044;-62
2022/08/20 04:10:08;;;;;;;2.75;1.80;;;;;;;;;;5069161;28;20048;-62
2022/08/20 04:12:39;;;;;;;3.03;1.80;;;;;;;;;;5073245;28;20367;-62
2022/08/20 04:15:06;;;;;;;3.25;1.80;;;;;;;;;;5072684;28;20120;-62
2022/08/20 04:17:32;;;;;;;1.75;1.40;;;;;;;;;;5071815;28;20477;-62
2022/08/20 04:19:58;;;;;;;2.30;1.60;;;;;;;;;;5073011;28;20047;-62
2022/08/20 04:22:24;;;;;;;2.47;1.60;;;;;;;;;;5054636;28;20048;-62
2022/08/20 04:24:50;;;;;;;2.97;1.70;;;;;;;;;;5072840;28;20041;-62
2022/08/20 04:27:16;;;;;;;2.20;1.55;;;;;;;;;;5047828;28;20474;-62
2022/08/20 04:29:43;;;;;;;2.85;1.77;;;;;;;;;;5053324;28;20520;-62
2022/08/20 04:32:09;;;;;;;2.00;1.48;;;;;;;;;;5051710;28;20578;-62
2022/08/20 04:34:35;;;;;;;2.80;1.83;;;;;;;;;;5054285;28;20425;-62
2022/08/20 04:37:02;;;;;;;2.40;1.60;;;;;;;;;;5051662;28;20135;-62
2022/08/20 04:39:28;;;;;;;2.13;1.48;;;;;;;;;;5053138;28;20055;-62
2022/08/20 04:41:54;;;;;;;2.38;1.63;;;;;;;;;;5052632;28;20560;-62
2022/08/20 04:44:21;;;;;;;2.78;1.77;;;;;;;;;;5052508;28;20187;-62
2022/08/20 04:46:47;;;;;;;2.53;1.65;;;;;;;;;;5051819;28;20049;-62
2022/08/20 04:49:13;;;;;;;3.25;1.70;;;;;;;;;;5052574;28;20144;-62
2022/08/20 04:51:39;;;;;;;3.63;1.58;;;;;;;;;;5056233;28;20044;-62
2022/08/20 04:54:05;;;;;;;2.42;1.70;;;;;;;;;;5072347;28;20044;-62
2022/08/20 04:56:37;;;;;;;2.85;1.60;;;;;;;;;;5053954;28;20068;-62
2022/08/20 04:59:04;;;;;;;3.83;1.77;;;;;;;;;;5052622;28;20049;-62
2022/08/20 05:01:30;;;;;;;4.22;1.70;;;;;;;;;;5051448;28;20074;-62
2022/08/20 05:03:57;;;;;;;2.58;1.73;;;;;;;;;;5052684;28;20037;-62
2022/08/20 05:06:25;;;;;;;2.45;1.50;;;;;;;;;;5051039;28;20044;-62
2022/08/20 05:08:52;;;;;;;2.40;1.60;;;;;;;;;;5052681;28;20194;-62
2022/08/20 05:11:20;;;;;;;2.08;1.60;;;;;;;;;;5070639;28;20401;-62
2022/08/20 05:13:46;;;;;;;1.35;1.23;;;;;;;;;;5054834;28;20049;-62
2022/08/20 05:16:13;;;;;;;2.80;1.70;;;;;;;;;;5067784;28;20513;-62
2022/08/20 05:18:40;;;;;;;2.05;1.60;;;;;;;;;;5057082;28;20067;-62
2022/08/20 05:21:06;;;;;;;2.00;1.65;;;;;;;;;;5071097;28;20086;-62
2022/08/20 05:23:33;;;;;;;3.03;1.70;;;;;;;;;;5072135;28;20115;-62
2022/08/20 05:25:59;;;;;;;3.90;1.70;;;;;;;;;;5072035;28;20190;-62
2022/08/20 05:28:31;;;;;;;2.67;1.50;;;;;;;;;;5071772;28;20287;-62
2022/08/20 05:30:58;;;;;;;3.75;1.98;;;;;;;;;;5052923;28;20552;-62
2022/08/20 05:33:24;;;;;;;2.95;1.60;;;;;;;;;;5068497;28;20084;-62
2022/08/20 05:35:51;;;;;;;3.03;1.70;;;;;;;;;;5038322;28;20055;-62
2022/08/20 05:38:19;;;;;;;2.95;1.50;;;;;;;;;;5061441;28;20041;-62
2022/08/20 05:40:46;;;;;;;2.55;1.70;;;;;;;;;;5033850;28;20052;-62
2022/08/20 05:43:12;;;;;;;2.75;1.63;;;;;;;;;;5051441;28;20041;-62
2022/08/20 05:45:39;;;;;;;1.73;1.30;;;;;;;;;;5055722;28;20040;-62
2022/08/20 05:48:10;;;;;;;1.88;1.33;;;;;;;;;;5071825;28;20040;-62
2022/08/20 05:50:37;;;;;;;2.85;1.70;;;;;;;;;;5053029;28;20045;-62
2022/08/20 05:53:03;;;;;;;1.98;1.50;;;;;;;;;;5071702;28;20053;-62
2022/08/20 05:55:29;;;;;;;1.98;1.55;;;;;;;;;;5039513;28;20611;-62
2022/08/20 05:57:59;;;;;;;2.40;1.60;;;;;;;;;;5053198;28;20041;-62
2022/08/20 06:00:26;;;;;;;2.28;1.55;;;;;;;;;;5069029;28;20044;-62
2022/08/20 06:05:37;;;;;;;2.55;1.52;;;;;;;;;;5037605;28;20130;-62
2022/08/20 06:08:07;;;;;;;3.95;1.83;;;;;;;;;;5071433;28;20093;-62
2022/08/20 06:10:33;;;;;;;2.03;1.50;;;;;;;;;;5070678;28;20040;-62
2022/08/20 06:12:59;;;;;;;2.38;1.40;;;;;;;;;;5071263;28;20262;-62
2022/08/20 06:15:26;;;;;;;2.33;1.33;;;;;;;;;;5069648;28;20044;-62
2022/08/20 06:17:52;;;;;;;2.55;1.48;;;;;;;;;;5070429;28;20037;-62
2022/08/20 06:20:18;;;;;;;2.53;1.50;;;;;;;;;;5053977;28;20103;-62
2022/08/20 06:22:44;;;;;;;2.10;1.63;;;;;;;;;;5064609;28;20045;-61
2022/08/20 06:25:10;;;;;;;2.78;1.63;;;;;;;;;;5071013;28;20044;-62
2022/08/20 06:27:40;;;;;;;2.00;1.60;;;;;;;;;;5070475;28;20037;-62
2022/08/20 06:30:07;;;;;;;1.73;1.40;;;;;;;;;;5070465;28;20044;-62
2022/08/20 06:32:33;;;;;;;2.08;1.40;;;;;;;;;;5069494;28;20051;-62
2022/08/20 06:35:04;;;;;;;1.73;1.55;;;;;;;;;;5058285;28;20487;-62
2022/08/20 06:37:31;;;;;;;2.50;1.40;;;;;;;;;;5049397;28;20166;-62
2022/08/20 06:39:59;;;;;;;3.92;1.70;;;;;;;;;;5052311;28;20051;-62
2022/08/20 06:42:26;;;;;;;2.13;1.50;;;;;;;;;;5049986;28;20052;-62
2022/08/20 06:44:52;;;;;;;2.17;1.48;;;;;;;;;;5050737;28;20132;-62
2022/08/20 06:47:19;;;;;;;3.55;1.95;;;;;;;;;;5048953;28;20091;-62
2022/08/20 06:49:46;;;;;;;1.90;1.48;;;;;;;;;;5050738;28;20051;-62
2022/08/20 06:52:14;;;;;;;3.15;1.70;;;;;;;;;;5049591;28;20037;-62
2022/08/20 06:54:40;;;;;;;2.38;1.70;;;;;;;;;;5059994;28;20116;-62
2022/08/20 06:57:06;;;;;;;1.95;1.40;;;;;;;;;;5063390;28;20135;-61
2022/08/20 06:59:32;;;;;;;1.98;1.48;;;;;;;;;;5069145;28;20087;-62
2022/08/20 07:01:58;;;;;;;2.05;1.50;;;;;;;;;;5051992;28;20147;-63
2022/08/20 07:04:25;;;;;;;1.55;1.40;;;;;;;;;;5048742;28;20033;-62
2022/08/20 07:06:52;;;;;;;2.38;1.50;;;;;;;;;;5058621;28;20257;-62
2022/08/20 07:09:18;;;;;;;2.53;1.55;;;;;;;;;;5057018;28;20040;-62
2022/08/20 07:11:45;;;;;;;2.55;1.40;;;;;;;;;;5069455;28;20119;-62
2022/08/20 07:14:11;;;;;;;2.45;1.25;;;;;;;;;;5070399;28;20041;-62
2022/08/20 07:16:37;;;;;;;2.30;1.40;;;;;;;;;;5068505;28;20040;-62
2022/08/20 07:19:03;;;;;;;2.03;1.45;;;;;;;;;;5070330;28;20040;-62
2022/08/20 07:21:29;;;;;;;1.33;1.23;;;;;;;;;;5061657;28;20110;-62
2022/08/20 07:23:56;;;;;;;1.83;1.45;;;;;;;;;;5052881;28;20053;-62
2022/08/20 07:26:22;;;;;;;1.90;1.67;;;;;;;;;;5049362;28;20045;-62
2022/08/20 07:28:48;;;;;;;1.85;1.33;;;;;;;;;;5050270;28;20041;-62
2022/08/20 07:33:59;;;;;;;2.50;1.55;;;;;;;;;;5035255;28;20049;-62
2022/08/20 07:36:25;;;;;;;2.35;1.40;;;;;;;;;;5048571;28;20324;-62
2022/08/20 07:38:51;;;;;;;2.35;1.52;;;;;;;;;;5050140;28;20044;-62
2022/08/20 07:41:17;;;;;;;2.20;1.40;;;;;;;;;;5046799;28;20044;-62
2022/08/20 07:43:44;;;;;;;1.90;1.50;;;;;;;;;;5067824;28;20037;-62
2022/08/20 07:46:10;;;;;;;2.03;1.40;;;;;;;;;;5072852;28;20044;-62
2022/08/20 07:48:38;;;;;;;2.40;1.52;;;;;;;;;;5055719;28;20052;-62
2022/08/20 07:51:05;;;;;;;1.20;1.08;;;;;;;;;;5072701;28;20048;-62
2022/08/20 07:53:33;;;;;;;2.30;1.60;;;;;;;;;;5073260;28;20389;-62
2022/08/20 07:55:59;;;;;;;1.98;1.40;;;;;;;;;;5073094;28;20086;-62
2022/08/20 07:58:25;;;;;;;2.00;1.60;;;;;;;;;;5073470;28;20036;-62
2022/08/20 08:00:51;;;;;;;2.15;1.52;;;;;;;;;;5068269;28;20036;-62
2022/08/20 08:03:18;;;;;;;2.60;1.63;;;;;;;;;;5069849;28;20044;-63
2022/08/20 08:05:45;;;;;;;2.53;1.50;;;;;;;;;;5071493;28;20055;-62
2022/08/20 08:08:13;;;;;;;1.92;1.38;;;;;;;;;;5072773;28;20048;-62
2022/08/20 08:10:40;;;;;;;1.80;1.35;;;;;;;;;;5071442;28;20610;-62
2022/08/20 08:13:08;;;;;;;2.35;1.30;;;;;;;;;;5065573;28;20073;-63
2022/08/20 08:15:38;;;;;;;2.40;1.55;;;;;;;;;;5070229;28;20048;-63
2022/08/20 08:18:06;;;;;;;3.13;1.35;;;;;;;;;;5071132;28;20540;-63
2022/08/20 08:20:33;;;;;;;2.13;1.38;;;;;;;;;;5069279;28;20044;-63
2022/08/20 08:22:59;;;;;;;2.05;1.50;;;;;;;;;;5071343;28;20571;-63
2022/08/20 08:25:26;;;;;;;1.50;1.35;;;;;;;;;;5071031;28;20052;-63
2022/08/20 08:27:52;;;;;;;1.52;1.30;;;;;;;;;;5071365;28;20041;-63
2022/08/20 08:30:18;;;;;;;1.42;1.30;;;;;;;;;;5070151;28;20139;-63
2022/08/20 08:35:31;;;;;;;2.53;1.50;;;;;;;;;;5069172;28;20045;-64
2022/08/20 08:38:01;;;;;;;2.03;1.50;;;;;;;;;;5060283;28;20041;-64
2022/08/20 08:40:28;;;;;;;2.33;1.40;;;;;;;;;;5063768;28;20393;-64
2022/08/20 08:42:56;;;;;;;4.88;1.88;;;;;;;;;;5070988;28;20548;-63
2022/08/20 08:45:24;;;;;;;1.30;1.20;;;;;;;;;;5059092;28;20048;-63
2022/08/20 08:47:50;;;;;;;1.50;1.10;;;;;;;;;;5070696;28;20063;-63
2022/08/20 08:50:22;;;;;;;2.13;1.30;;;;;;;;;;5071566;28;20085;-63
2022/08/20 08:52:50;;;;;;;1.92;1.58;;;;;;;;;;5070323;28;20090;-63
2022/08/20 08:55:18;;;;;;;1.75;1.40;;;;;;;;;;5070646;28;20892;-63
2022/08/20 08:57:46;;;;;;;3.22;1.30;;;;;;;;;;5070490;28;20049;-63
2022/08/20 09:00:14;;;;;;;1.40;1.20;;;;;;;;;;5069550;28;20044;-63
2022/08/20 09:02:52;;;;;;;1.85;1.45;;;;;;;;;;5069774;28;20159;-63
2022/08/20 09:05:20;;;;;;;2.28;1.42;;;;;;;;;;5066893;28;20033;-63
2022/08/20 09:07:48;;;;;;;1.80;1.30;;;;;;;;;;5058344;28;20044;-63
2022/08/20 09:10:15;;;;;;;2.05;1.10;;;;;;;;;;5071156;28;20089;-63
2022/08/20 09:12:43;;;;;;;1.45;1.30;;;;;;;;;;5070405;28;20044;-64
2022/08/20 09:15:09;;;;;;;2.63;1.50;;;;;;;;;;5062487;28;20056;-63
2022/08/20 09:17:35;;;;;;;3.33;1.27;;;;;;;;;;5070014;28;20047;-63
2022/08/20 09:20:02;;;;;;;4.18;1.50;;;;;;;;;;5072111;28;20079;-63
2022/08/20 09:22:28;;;;;;;3.80;1.45;;;;;;;;;;5053511;28;20045;-63
2022/08/20 09:24:55;;;;;;;3.95;1.48;;;;;;;;;;5072781;28;20088;-64
2022/08/20 09:27:21;;;;;;;1.63;1.30;;;;;;;;;;5071961;28;20036;-63
2022/08/20 09:29:47;;;;;;;1.70;1.10;;;;;;;;;;5072079;28;20509;-63
2022/08/20 09:32:18;;;;;;;3.00;1.50;;;;;;;;;;5051709;28;20045;-63
2022/08/20 09:34:45;;;;;;;1.63;1.15;;;;;;;;;;5035192;28;20045;-64
2022/08/20 09:37:12;;;;;;;1.58;1.15;;;;;;;;;;5065478;28;20101;-64
2022/08/20 09:39:38;;;;;;;2.20;1.48;;;;;;;;;;5072105;28;20049;-64
2022/08/20 09:42:08;;;;;;;2.70;1.45;;;;;;;;;;5072287;28;20048;-64
2022/08/20 09:44:34;;;;;;;4.55;1.45;;;;;;;;;;5064276;28;20033;-63
2022/08/20 09:47:01;;;;;;;2.83;1.52;;;;;;;;;;5051166;28;20056;-63
2022/08/20 09:49:27;;;;;;;2.45;1.42;;;;;;;;;;5064953;28;20040;-64
2022/08/20 09:51:53;;;;;;;2.85;1.40;;;;;;;;;;5041471;28;20044;-63
2022/08/20 09:54:19;;;;;;;2.13;1.10;;;;;;;;;;5070587;28;20032;-65
2022/08/20 09:56:45;;;;;;;2.78;1.20;;;;;;;;;;5067120;28;20049;-64
2022/08/20 09:59:13;;;;;;;4.85;1.40;;;;;;;;;;5068969;28;20166;-65
2022/08/20 10:01:39;;;;;;;2.17;1.10;;;;;;;;;;5065554;28;20044;-64
2022/08/20 10:04:06;;;;;;;3.22;1.75;;;;;;;;;;5053830;28;20502;-64
2022/08/20 10:06:37;;;;;;;3.90;1.75;;;;;;;;;;5067564;28;20135;-64
2022/08/20 10:09:04;;;;;;;2.65;1.33;;;;;;;;;;5068401;28;20060;-64
2022/08/20 10:11:30;;;;;;;2.45;1.30;;;;;;;;;;5068808;28;20074;-64
2022/08/20 10:13:56;;;;;;;2.65;1.50;;;;;;;;;;5069502;28;20036;-64
2022/08/20 10:16:22;;;;;;;5.45;1.50;;;;;;;;;;5068072;28;20359;-64
2022/08/20 10:18:48;;;;;;;3.20;1.45;;;;;;;;;;5052083;28;20524;-64
2022/08/20 10:21:14;;;;;;;4.78;1.83;;;;;;;;;;5069033;28;20048;-64
2022/08/20 10:23:40;;;;;;;5.07;1.40;;;;;;;;;;5060998;28;20498;-64
2022/08/20 10:26:07;;;;;;;2.60;1.40;;;;;;;;;;5050666;28;20132;-64
2022/08/20 10:28:33;;;;;;;3.13;1.30;;;;;;;;;;5032791;28;20519;-64
2022/08/20 10:30:59;;;;;;;2.25;1.13;;;;;;;;;;5049654;28;20045;-64
2022/08/20 10:33:25;;;;;;;2.72;1.35;;;;;;;;;;5051018;28;20083;-64
2022/08/20 10:35:51;;;;;;;3.20;1.48;;;;;;;;;;5048996;28;20880;-64
2022/08/20 10:38:17;;;;;;;3.55;1.60;;;;;;;;;;5050522;28;20462;-64
2022/08/20 10:40:43;;;;;;;1.52;1.10;;;;;;;;;;5062348;28;20595;-64
2022/08/20 10:43:09;;;;;;;2.10;1.40;;;;;;;;;;5052872;28;20135;-64
2022/08/20 10:45:35;;;;;;;2.45;1.27;;;;;;;;;;5064936;28;20044;-64
2022/08/20 10:48:02;;;;;;;3.15;1.40;;;;;;;;;;5052892;28;20047;-64
2022/08/20 10:50:28;;;;;;;5.50;1.70;;;;;;;;;;5049484;28;20068;-64
2022/08/20 10:52:54;;;;;;;2.55;1.48;;;;;;;;;;5064207;28;20040;-64
2022/08/20 10:55:20;;;;;;;1.90;1.05;;;;;;;;;;5058359;28;20051;-64
2022/08/20 10:57:46;;;;;;;3.15;1.50;;;;;;;;;;5069294;28;20533;-64
2022/08/20 11:00:14;;;;;;;1.40;1.13;;;;;;;;;;5069392;28;20032;-64
2022/08/20 11:02:40;;;;;;;2.30;1.42;;;;;;;;;;5066900;28;20485;-64
2022/08/20 11:05:07;;;;;;;1.65;1.17;;;;;;;;;;5067956;28;20422;-64
2022/08/20 11:07:34;;;;;;;1.20;1.10;;;;;;;;;;5062919;28;20102;-64
2022/08/20 11:10:00;;;;;;;4.13;1.73;;;;;;;;;;5056143;28;20055;-64
2022/08/20 11:12:27;;;;;;;2.30;1.38;;;;;;;;;;5068956;28;20047;-64
2022/08/20 11:14:53;;;;;;;3.33;1.13;;;;;;;;;;5068489;28;20033;-64
2022/08/20 11:17:23;;;;;;;2.17;1.20;;;;;;;;;;5065040;28;20040;-64
2022/08/20 11:19:50;;;;;;;1.70;1.10;;;;;;;;;;5068788;28;20056;-64
2022/08/20 11:22:16;;;;;;;2.47;1.20;;;;;;;;;;5067516;28;20137;-64
2022/08/20 11:24:42;;;;;;;3.80;1.50;;;;;;;;;;5067553;28;20049;-64
2022/08/20 11:27:10;;;;;;;1.53;1.30;;;;;;;;;;5067016;28;20432;-64
2022/08/20 11:29:37;;;;;;;2.97;1.20;;;;;;;;;;5068298;28;20052;-64
2022/08/20 11:32:04;;;;;;;3.25;1.42;;;;;;;;;;5048925;28;20072;-65
2022/08/20 11:34:30;;;;;;;2.10;1.30;;;;;;;;;;5069637;28;20165;-65
2022/08/20 11:36:57;;;;;;;2.25;1.20;;;;;;;;;;5068998;28;20049;-64
2022/08/20 11:39:24;;;;;;;1.25;1.15;;;;;;;;;;5053003;28;20044;-64
2022/08/20 11:41:50;;;;;;;2.47;1.50;;;;;;;;;;5069399;28;20481;-64
2022/08/20 11:44:16;;;;;;;1.88;1.00;;;;;;;;;;5070117;28;20684;-64
2022/08/20 11:46:42;;;;;;;2.65;1.30;;;;;;;;;;5060567;28;20075;-64
2022/08/20 11:49:08;;;;;;;3.95;1.20;;;;;;;;;;5066844;28;20040;-65
2022/08/20 11:51:36;;;;;;;2.13;1.30;;;;;;;;;;5061437;28;20044;-64
2022/08/20 11:54:02;;;;;;;2.22;1.10;;;;;;;;;;5058368;28;20079;-64
2022/08/20 11:56:28;;;;;;;2.88;1.10;;;;;;;;;;5069534;28;20072;-63
2022/08/20 11:58:54;;;;;;;1.50;1.15;;;;;;;;;;5069578;28;20047;-64
2022/08/20 12:01:20;;;;;;;2.22;0.95;;;;;;;;;;5069399;28;20527;-64
2022/08/20 12:03:46;;;;;;;2.30;1.25;;;;;;;;;;5069961;28;20132;-64
2022/08/20 12:06:12;;;;;;;2.50;1.20;;;;;;;;;;5069492;28;20040;-64
2022/08/20 12:08:38;;;;;;;2.58;1.13;;;;;;;;;;5070016;28;20505;-64
2022/08/20 12:11:05;;;;;;;4.10;1.60;;;;;;;;;;5037572;28;20120;-63
2022/08/20 12:13:32;;;;;;;2.17;1.42;;;;;;;;;;5050425;28;20076;-64
2022/08/20 12:15:58;;;;;;;4.47;1.45;;;;;;;;;;5048502;28;20495;-64
2022/08/20 12:18:25;;;;;;;3.53;1.13;;;;;;;;;;5032787;28;20056;-63
2022/08/20 12:20:51;;;;;;;2.97;1.50;;;;;;;;;;5048774;28;20048;-64
2022/08/20 12:23:17;;;;;;;2.60;1.20;;;;;;;;;;5068682;28;20101;-63
2022/08/20 12:25:43;;;;;;;3.88;1.13;;;;;;;;;;5069454;28;20052;-63
2022/08/20 12:28:11;;;;;;;1.60;0.93;;;;;;;;;;5073297;28;20611;-63
2022/08/20 12:30:37;;;;;;;2.40;1.00;;;;;;;;;;5072778;28;20055;-63
2022/08/20 12:33:03;;;;;;;3.05;1.20;;;;;;;;;;5073372;28;20134;-63
2022/08/20 12:35:30;;;;;;;1.95;1.10;;;;;;;;;;5072846;28;20106;-63
2022/08/20 12:37:57;;;;;;;2.28;1.00;;;;;;;;;;5055534;28;20049;-63
2022/08/20 12:40:25;;;;;;;2.10;1.10;;;;;;;;;;5062811;28;20041;-64
2022/08/20 12:42:51;;;;;;;1.25;1.00;;;;;;;;;;5053115;28;20045;-64
2022/08/20 12:45:18;;;;;;;1.63;1.00;;;;;;;;;;5052550;28;20505;-64
2022/08/20 12:47:46;;;;;;;3.90;1.10;;;;;;;;;;5052855;28;20044;-64
2022/08/20 12:50:17;;;;;;;1.50;0.95;;;;;;;;;;5054028;28;20334;-64
2022/08/20 12:52:43;;;;;;;3.60;0.93;;;;;;;;;;5072393;28;20044;-64
2022/08/20 12:55:10;;;;;;;2.38;1.42;;;;;;;;;;5073496;28;20114;-63
2022/08/20 12:57:42;;;;;;;2.22;1.20;;;;;;;;;;5052319;28;20045;-64
2022/08/20 13:00:10;;;;;;;1.88;0.90;;;;;;;;;;5035647;28;20049;-63
2022/08/20 13:02:37;;;;;;;3.13;1.13;;;;;;;;;;5061435;28;20044;-63
2022/08/20 13:05:04;;;;;;;1.92;1.17;;;;;;;;;;5056617;28;20044;-63
2022/08/20 13:07:30;;;;;;;4.55;1.10;;;;;;;;;;5062775;28;20045;-63
2022/08/20 13:09:57;;;;;;;2.42;0.85;;;;;;;;;;5070969;28;20048;-65
2022/08/20 13:12:23;;;;;;;1.70;0.80;;;;;;;;;;5065662;28;20036;-64
2022/08/20 13:14:49;;;;;;;1.55;1.02;;;;;;;;;;5072176;28;20068;-63
2022/08/20 13:17:16;;;;;;;1.30;0.95;;;;;;;;;;5071379;28;20489;-63
2022/08/20 13:19:44;;;;;;;2.80;1.10;;;;;;;;;;5073198;28;20485;-63
2022/08/20 13:22:10;;;;;;;2.15;0.90;;;;;;;;;;5067352;28;20505;-63
2022/08/20 13:24:36;;;;;;;2.65;1.17;;;;;;;;;;5052824;28;20369;-64
2022/08/20 13:27:04;;;;;;;2.13;0.98;;;;;;;;;;5051979;28;20041;-63
2022/08/20 13:29:30;;;;;;;2.95;1.20;;;;;;;;;;5066314;28;20036;-63
2022/08/20 13:31:56;;;;;;;4.32;1.42;;;;;;;;;;5059383;28;20039;-63
2022/08/20 13:34:23;;;;;;;3.85;1.40;;;;;;;;;;5052740;28;20095;-63
2022/08/20 13:36:49;;;;;;;2.63;1.10;;;;;;;;;;5051181;28;20123;-64
2022/08/20 13:39:15;;;;;;;1.30;0.90;;;;;;;;;;5052489;28;20045;-64
2022/08/20 13:41:42;;;;;;;3.05;1.00;;;;;;;;;;5052337;28;20056;-64
2022/08/20 13:44:09;;;;;;;2.25;1.17;;;;;;;;;;5052233;28;20091;-63
2022/08/20 13:46:35;;;;;;;2.72;1.42;;;;;;;;;;5052986;28;20505;-63
2022/08/20 13:49:01;;;;;;;1.60;1.25;;;;;;;;;;5070053;28;20127;-64
2022/08/20 13:51:27;;;;;;;5.05;1.60;;;;;;;;;;5071429;28;20044;-63
2022/08/20 13:53:53;;;;;;;1.38;0.90;;;;;;;;;;5071528;28;20032;-64
2022/08/20 13:56:19;;;;;;;1.67;1.05;;;;;;;;;;5062194;28;20044;-64
2022/08/20 13:58:45;;;;;;;1.33;1.05;;;;;;;;;;5072308;28;20044;-63
2022/08/20 14:01:12;;;;;;;1.08;0.90;;;;;;;;;;5064825;28;20056;-64
2022/08/20 14:03:38;;;;;;;1.02;0.93;;;;;;;;;;5061395;28;20040;-63
2022/08/20 14:06:04;;;;;;;1.83;1.10;;;;;;;;;;5070366;28;20047;-64
2022/08/20 14:08:30;;;;;;;0.82;0.80;;;;;;;;;;5071511;28;20044;-64
2022/08/20 14:10:56;;;;;;;0.82;0.80;;;;;;;;;;5065522;28;20041;-63
2022/08/20 14:13:24;;;;;;;3.05;1.20;;;;;;;;;;5063752;28;20128;-64
2022/08/20 14:15:50;;;;;;;1.15;1.00;;;;;;;;;;5068222;28;20039;-64
2022/08/20 14:18:17;;;;;;;1.17;0.82;;;;;;;;;;5068614;28;20036;-63
2022/08/20 14:20:43;;;;;;;1.17;0.88;;;;;;;;;;5033357;28;20051;-64
2022/08/20 14:23:09;;;;;;;1.08;0.80;;;;;;;;;;5067391;28;20122;-64
2022/08/20 14:25:36;;;;;;;1.23;1.00;;;;;;;;;;5051221;28;20044;-64
2022/08/20 14:28:09;;;;;;;2.05;1.02;;;;;;;;;;5070362;28;20094;-64
2022/08/20 14:30:35;;;;;;;1.52;1.00;;;;;;;;;;5051891;28;20055;-64
2022/08/20 14:33:01;;;;;;;1.85;1.10;;;;;;;;;;5070039;28;20037;-63
2022/08/20 14:35:27;;;;;;;1.85;1.05;;;;;;;;;;5070202;28;20032;-63
2022/08/20 14:37:55;;;;;;;1.08;0.85;;;;;;;;;;5058589;28;20037;-63
2022/08/20 14:40:22;;;;;;;1.95;0.90;;;;;;;;;;5051045;28;20407;-64
2022/08/20 14:42:49;;;;;;;1.08;0.90;;;;;;;;;;5065075;28;20067;-63
2022/08/20 14:45:15;;;;;;;3.08;1.02;;;;;;;;;;5057077;28;20052;-63
2022/08/20 14:47:46;;;;;;;2.28;0.82;;;;;;;;;;5059031;28;20443;-63
2022/08/20 14:50:14;;;;;;;2.95;0.90;;;;;;;;;;5069726;28;20063;-63
2022/08/20 14:52:40;;;;;;;0.95;0.73;;;;;;;;;;5069715;28;20040;-64